sensor_id;sensor_type;location;lat;lon;timestamp;P1;durP1;ratioP1;P2;durP2;ratioP2
9997;SDS011;5038;53.064;8.624;2023-06-01T00:02:24;12.17;;;8.10;;
9997;SDS011;5038;53.064;8.624;2023-06-01T00:04:53;14.30;;;7.60;;
9997;SDS011;5038;53.064;8.624;2023-06-01T00:07:21;13.43;;;7.53;;
9997;SDS011;5038;53.064;8.624;2023-06-01T00:09:50;13.97;;;8.53;;
9997;SDS011;5038;53.064;8.624;2023-06-01T00:12:18;16.53;;;8.17;;
9997;SDS011;5038;53.064;8.624;2023-06-01T00:14:46;13.23;;;8.70;;
9997;SDS011;5038;53.064;8.624;2023-06-01T00:17:16;11.90;;;7.87;;
9997;SDS011;5038;53.064;8.624;2023-06-01T00:19:46;14.03;;;8.23;;
9997;SDS011;5038;53.064;8.624;2023-06-01T00:22:14;16.43;;;7.63;;
9997;SDS011;5038;53.064;8.624;2023-06-01T00:24:43;15.07;;;7.10;;
9997;SDS011;5038;53.064;8.624;2023-06-01T00:27:11;13.43;;;6.80;;
9997;SDS011;5038;53.064;8.624;2023-06-01T00:29:39;11.93;;;7.10;;
9997;SDS011;5038;53.064;8.624;2023-06-01T00:32:07;13.00;;;7.50;;
9997;SDS011;5038;53.064;8.624;2023-06-01T00:34:37;13.10;;;7.77;;
9997;SDS011;5038;53.064;8.624;2023-06-01T00:37:05;14.00;;;8.17;;
9997;SDS011;5038;53.064;8.624;2023-06-01T00:39:33;15.77;;;8.97;;
9997;SDS011;5038;53.064;8.624;2023-06-01T00:42:01;11.27;;;7.80;;
9997;SDS011;5038;53.064;8.624;2023-06-01T00:44:31;11.77;;;7.77;;
9997;SDS011;5038;53.064;8.624;2023-06-01T00:46:59;14.27;;;7.63;;
9997;SDS011;5038;53.064;8.624;2023-06-01T00:49:28;14.30;;;7.70;;
9997;SDS011;5038;53.064;8.624;2023-06-01T00:51:58;14.30;;;7.57;;
9997;SDS011;5038;53.064;8.624;2023-06-01T00:54:26;13.83;;;6.70;;
9997;SDS011;5038;53.064;8.624;2023-06-01T00:56:55;11.43;;;7.77;;
9997;SDS011;5038;53.064;8.624;2023-06-01T00:59:24;15.80;;;8.10;;
9997;SDS011;5038;53.064;8.624;2023-06-01T01:01:52;11.93;;;7.23;;
9997;SDS011;5038;53.064;8.624;2023-06-01T01:04:20;15.57;;;8.00;;
9997;SDS011;5038;53.064;8.624;2023-06-01T01:06:53;12.53;;;7.27;;
9997;SDS011;5038;53.064;8.624;2023-06-01T01:09:32;11.20;;;7.60;;
9997;SDS011;5038;53.064;8.624;2023-06-01T01:12:08;12.40;;;7.50;;
9997;SDS011;5038;53.064;8.624;2023-06-01T01:14:44;10.80;;;6.23;;
9997;SDS011;5038;53.064;8.624;2023-06-01T01:17:18;13.13;;;7.50;;
9997;SDS011;5038;53.064;8.624;2023-06-01T01:20:01;14.73;;;8.67;;
9997;SDS011;5038;53.064;8.624;2023-06-01T01:22:51;11.53;;;8.33;;
9997;SDS011;5038;53.064;8.624;2023-06-01T01:25:59;11.30;;;7.60;;
9997;SDS011;5038;53.064;8.624;2023-06-01T01:28:44;12.53;;;7.97;;
9997;SDS011;5038;53.064;8.624;2023-06-01T01:31:17;12.40;;;7.80;;
9997;SDS011;5038;53.064;8.624;2023-06-01T01:33:46;12.53;;;8.00;;
9997;SDS011;5038;53.064;8.624;2023-06-01T01:36:16;12.37;;;7.47;;
9997;SDS011;5038;53.064;8.624;2023-06-01T01:38:44;12.80;;;7.80;;
9997;SDS011;5038;53.064;8.624;2023-06-01T01:41:12;12.20;;;6.97;;
9997;SDS011;5038;53.064;8.624;2023-06-01T01:43:41;13.10;;;7.63;;
9997;SDS011;5038;53.064;8.624;2023-06-01T01:46:13;13.00;;;7.40;;
9997;SDS011;5038;53.064;8.624;2023-06-01T01:48:51;11.33;;;7.00;;
9997;SDS011;5038;53.064;8.624;2023-06-01T01:51:27;14.50;;;6.30;;
9997;SDS011;5038;53.064;8.624;2023-06-01T01:54:04;10.40;;;6.80;;
9997;SDS011;5038;53.064;8.624;2023-06-01T01:56:34;13.60;;;7.77;;
9997;SDS011;5038;53.064;8.624;2023-06-01T01:59:03;12.67;;;7.43;;
9997;SDS011;5038;53.064;8.624;2023-06-01T02:01:33;11.00;;;7.43;;
9997;SDS011;5038;53.064;8.624;2023-06-01T02:04:03;12.83;;;7.00;;
9997;SDS011;5038;53.064;8.624;2023-06-01T02:06:34;16.03;;;7.47;;
9997;SDS011;5038;53.064;8.624;2023-06-01T02:09:03;12.80;;;7.40;;
9997;SDS011;5038;53.064;8.624;2023-06-01T02:11:33;12.10;;;7.97;;
9997;SDS011;5038;53.064;8.624;2023-06-01T02:14:01;16.70;;;8.33;;
9997;SDS011;5038;53.064;8.624;2023-06-01T02:16:30;14.40;;;7.53;;
9997;SDS011;5038;53.064;8.624;2023-06-01T02:18:59;13.80;;;7.53;;
9997;SDS011;5038;53.064;8.624;2023-06-01T02:21:29;12.77;;;7.77;;
9997;SDS011;5038;53.064;8.624;2023-06-01T02:24:00;12.20;;;8.03;;
9997;SDS011;5038;53.064;8.624;2023-06-01T02:26:32;14.83;;;7.90;;
9997;SDS011;5038;53.064;8.624;2023-06-01T02:29:01;12.50;;;7.67;;
9997;SDS011;5038;53.064;8.624;2023-06-01T02:31:32;12.37;;;7.27;;
9997;SDS011;5038;53.064;8.624;2023-06-01T02:34:02;19.37;;;7.80;;
9997;SDS011;5038;53.064;8.624;2023-06-01T02:36:30;12.50;;;7.80;;
9997;SDS011;5038;53.064;8.624;2023-06-01T02:38:59;13.50;;;7.70;;
9997;SDS011;5038;53.064;8.624;2023-06-01T02:41:27;10.27;;;5.80;;
9997;SDS011;5038;53.064;8.624;2023-06-01T02:43:56;15.20;;;6.67;;
9997;SDS011;5038;53.064;8.624;2023-06-01T02:46:25;12.20;;;6.83;;
9997;SDS011;5038;53.064;8.624;2023-06-01T02:48:54;11.50;;;6.27;;
9997;SDS011;5038;53.064;8.624;2023-06-01T02:51:24;11.43;;;5.97;;
9997;SDS011;5038;53.064;8.624;2023-06-01T02:54:02;13.60;;;7.63;;
9997;SDS011;5038;53.064;8.624;2023-06-01T02:56:30;10.80;;;6.93;;
9997;SDS011;5038;53.064;8.624;2023-06-01T02:59:07;11.50;;;6.07;;
9997;SDS011;5038;53.064;8.624;2023-06-01T03:01:42;10.47;;;6.03;;
9997;SDS011;5038;53.064;8.624;2023-06-01T03:04:10;12.73;;;7.30;;
9997;SDS011;5038;53.064;8.624;2023-06-01T03:06:41;12.17;;;6.80;;
9997;SDS011;5038;53.064;8.624;2023-06-01T03:09:25;11.23;;;7.20;;
9997;SDS011;5038;53.064;8.624;2023-06-01T03:12:11;12.10;;;6.40;;
9997;SDS011;5038;53.064;8.624;2023-06-01T03:14:40;12.60;;;6.87;;
9997;SDS011;5038;53.064;8.624;2023-06-01T03:17:08;11.30;;;6.90;;
9997;SDS011;5038;53.064;8.624;2023-06-01T03:19:36;13.03;;;7.00;;
9997;SDS011;5038;53.064;8.624;2023-06-01T03:22:24;15.70;;;7.50;;
9997;SDS011;5038;53.064;8.624;2023-06-01T03:24:52;14.93;;;7.60;;
9997;SDS011;5038;53.064;8.624;2023-06-01T03:27:26;16.33;;;9.03;;
9997;SDS011;5038;53.064;8.624;2023-06-01T03:29:54;17.03;;;7.37;;
9997;SDS011;5038;53.064;8.624;2023-06-01T03:32:22;13.57;;;8.03;;
9997;SDS011;5038;53.064;8.624;2023-06-01T03:34:53;14.60;;;8.43;;
9997;SDS011;5038;53.064;8.624;2023-06-01T03:37:23;17.30;;;8.30;;
9997;SDS011;5038;53.064;8.624;2023-06-01T03:39:51;14.07;;;8.43;;
9997;SDS011;5038;53.064;8.624;2023-06-01T03:42:22;16.17;;;8.87;;
9997;SDS011;5038;53.064;8.624;2023-06-01T03:44:50;14.13;;;9.30;;
9997;SDS011;5038;53.064;8.624;2023-06-01T03:47:19;14.40;;;8.70;;
9997;SDS011;5038;53.064;8.624;2023-06-01T03:49:47;15.73;;;8.90;;
9997;SDS011;5038;53.064;8.624;2023-06-01T03:52:15;15.93;;;8.97;;
9997;SDS011;5038;53.064;8.624;2023-06-01T03:54:46;15.30;;;8.80;;
9997;SDS011;5038;53.064;8.624;2023-06-01T03:57:32;13.57;;;8.63;;
9997;SDS011;5038;53.064;8.624;2023-06-01T04:00:00;18.53;;;8.10;;
9997;SDS011;5038;53.064;8.624;2023-06-01T04:02:50;18.87;;;8.30;;
9997;SDS011;5038;53.064;8.624;2023-06-01T04:05:21;14.03;;;8.30;;
9997;SDS011;5038;53.064;8.624;2023-06-01T04:07:50;14.03;;;8.40;;
9997;SDS011;5038;53.064;8.624;2023-06-01T04:10:21;15.17;;;8.87;;
9997;SDS011;5038;53.064;8.624;2023-06-01T04:12:51;13.60;;;8.10;;
9997;SDS011;5038;53.064;8.624;2023-06-01T04:15:23;16.97;;;7.93;;
9997;SDS011;5038;53.064;8.624;2023-06-01T04:17:52;12.60;;;8.23;;
9997;SDS011;5038;53.064;8.624;2023-06-01T04:20:21;11.00;;;7.70;;
9997;SDS011;5038;53.064;8.624;2023-06-01T04:22:49;12.57;;;7.70;;
9997;SDS011;5038;53.064;8.624;2023-06-01T04:25:18;10.30;;;7.17;;
9997;SDS011;5038;53.064;8.624;2023-06-01T04:27:50;12.37;;;7.30;;
9997;SDS011;5038;53.064;8.624;2023-06-01T04:30:22;12.47;;;6.47;;
9997;SDS011;5038;53.064;8.624;2023-06-01T04:32:51;12.73;;;7.77;;
9997;SDS011;5038;53.064;8.624;2023-06-01T04:35:21;15.30;;;7.60;;
9997;SDS011;5038;53.064;8.624;2023-06-01T04:37:49;13.03;;;7.63;;
9997;SDS011;5038;53.064;8.624;2023-06-01T04:40:18;13.57;;;7.23;;
9997;SDS011;5038;53.064;8.624;2023-06-01T04:42:46;11.97;;;7.80;;
9997;SDS011;5038;53.064;8.624;2023-06-01T04:45:23;13.40;;;8.20;;
9997;SDS011;5038;53.064;8.624;2023-06-01T04:47:53;11.07;;;7.40;;
9997;SDS011;5038;53.064;8.624;2023-06-01T04:50:35;10.63;;;7.37;;
9997;SDS011;5038;53.064;8.624;2023-06-01T04:53:04;13.50;;;8.40;;
9997;SDS011;5038;53.064;8.624;2023-06-01T04:55:35;14.67;;;7.93;;
9997;SDS011;5038;53.064;8.624;2023-06-01T04:58:03;15.07;;;8.63;;
9997;SDS011;5038;53.064;8.624;2023-06-01T05:00:33;13.10;;;8.47;;
9997;SDS011;5038;53.064;8.624;2023-06-01T05:03:02;11.40;;;7.90;;
9997;SDS011;5038;53.064;8.624;2023-06-01T05:05:30;12.23;;;8.00;;
9997;SDS011;5038;53.064;8.624;2023-06-01T05:07:58;12.27;;;7.43;;
9997;SDS011;5038;53.064;8.624;2023-06-01T05:10:27;14.00;;;8.07;;
9997;SDS011;5038;53.064;8.624;2023-06-01T05:12:58;11.80;;;7.57;;
9997;SDS011;5038;53.064;8.624;2023-06-01T05:15:26;13.93;;;8.07;;
9997;SDS011;5038;53.064;8.624;2023-06-01T05:17:58;17.20;;;9.17;;
9997;SDS011;5038;53.064;8.624;2023-06-01T05:20:26;12.17;;;8.60;;
9997;SDS011;5038;53.064;8.624;2023-06-01T05:22:58;13.33;;;8.93;;
9997;SDS011;5038;53.064;8.624;2023-06-01T05:25:26;13.03;;;8.00;;
9997;SDS011;5038;53.064;8.624;2023-06-01T05:27:55;12.37;;;7.80;;
9997;SDS011;5038;53.064;8.624;2023-06-01T05:30:25;12.47;;;8.80;;
9997;SDS011;5038;53.064;8.624;2023-06-01T05:32:53;14.27;;;9.20;;
9997;SDS011;5038;53.064;8.624;2023-06-01T05:35:23;14.47;;;8.67;;
9997;SDS011;5038;53.064;8.624;2023-06-01T05:37:51;14.40;;;8.80;;
9997;SDS011;5038;53.064;8.624;2023-06-01T05:40:20;16.67;;;9.20;;
9997;SDS011;5038;53.064;8.624;2023-06-01T05:42:48;12.53;;;9.20;;
9997;SDS011;5038;53.064;8.624;2023-06-01T05:45:16;13.37;;;9.10;;
9997;SDS011;5038;53.064;8.624;2023-06-01T05:47:46;14.77;;;8.73;;
9997;SDS011;5038;53.064;8.624;2023-06-01T05:50:14;12.80;;;8.03;;
9997;SDS011;5038;53.064;8.624;2023-06-01T05:52:44;12.60;;;9.00;;
9997;SDS011;5038;53.064;8.624;2023-06-01T05:55:12;15.20;;;9.50;;
9997;SDS011;5038;53.064;8.624;2023-06-01T05:57:41;11.90;;;8.10;;
9997;SDS011;5038;53.064;8.624;2023-06-01T06:00:10;11.07;;;8.17;;
9997;SDS011;5038;53.064;8.624;2023-06-01T06:02:42;11.90;;;7.90;;
9997;SDS011;5038;53.064;8.624;2023-06-01T06:05:10;10.80;;;7.10;;
9997;SDS011;5038;53.064;8.624;2023-06-01T06:07:39;15.57;;;7.70;;
9997;SDS011;5038;53.064;8.624;2023-06-01T06:10:09;13.97;;;7.90;;
9997;SDS011;5038;53.064;8.624;2023-06-01T06:12:38;12.43;;;8.10;;
9997;SDS011;5038;53.064;8.624;2023-06-01T06:15:07;11.10;;;8.40;;
9997;SDS011;5038;53.064;8.624;2023-06-01T06:17:36;12.70;;;8.53;;
9997;SDS011;5038;53.064;8.624;2023-06-01T06:20:05;14.07;;;8.80;;
9997;SDS011;5038;53.064;8.624;2023-06-01T06:22:34;14.20;;;8.40;;
9997;SDS011;5038;53.064;8.624;2023-06-01T06:25:02;11.00;;;7.40;;
9997;SDS011;5038;53.064;8.624;2023-06-01T06:27:34;10.50;;;7.57;;
9997;SDS011;5038;53.064;8.624;2023-06-01T06:30:02;12.03;;;6.77;;
9997;SDS011;5038;53.064;8.624;2023-06-01T06:32:31;9.90;;;6.80;;
9997;SDS011;5038;53.064;8.624;2023-06-01T06:34:59;7.47;;;6.40;;
9997;SDS011;5038;53.064;8.624;2023-06-01T06:37:28;9.83;;;7.00;;
9997;SDS011;5038;53.064;8.624;2023-06-01T06:39:56;9.17;;;6.60;;
9997;SDS011;5038;53.064;8.624;2023-06-01T06:42:24;10.97;;;6.60;;
9997;SDS011;5038;53.064;8.624;2023-06-01T06:44:55;9.13;;;5.83;;
9997;SDS011;5038;53.064;8.624;2023-06-01T06:47:24;7.70;;;5.17;;
9997;SDS011;5038;53.064;8.624;2023-06-01T06:49:52;9.13;;;5.43;;
9997;SDS011;5038;53.064;8.624;2023-06-01T06:52:21;8.30;;;5.27;;
9997;SDS011;5038;53.064;8.624;2023-06-01T06:54:49;8.13;;;5.10;;
9997;SDS011;5038;53.064;8.624;2023-06-01T06:57:17;8.20;;;4.97;;
9997;SDS011;5038;53.064;8.624;2023-06-01T06:59:45;9.77;;;6.20;;
9997;SDS011;5038;53.064;8.624;2023-06-01T07:02:15;8.67;;;6.00;;
9997;SDS011;5038;53.064;8.624;2023-06-01T07:04:43;10.40;;;6.07;;
9997;SDS011;5038;53.064;8.624;2023-06-01T07:07:11;8.10;;;5.30;;
9997;SDS011;5038;53.064;8.624;2023-06-01T07:09:39;7.10;;;5.20;;
9997;SDS011;5038;53.064;8.624;2023-06-01T07:12:08;6.60;;;4.93;;
9997;SDS011;5038;53.064;8.624;2023-06-01T07:14:37;7.37;;;4.43;;
9997;SDS011;5038;53.064;8.624;2023-06-01T07:17:05;6.73;;;4.23;;
9997;SDS011;5038;53.064;8.624;2023-06-01T07:19:35;7.47;;;4.77;;
9997;SDS011;5038;53.064;8.624;2023-06-01T07:22:04;6.90;;;4.80;;
9997;SDS011;5038;53.064;8.624;2023-06-01T07:24:32;7.93;;;4.40;;
9997;SDS011;5038;53.064;8.624;2023-06-01T07:27:01;7.00;;;4.27;;
9997;SDS011;5038;53.064;8.624;2023-06-01T07:29:29;8.10;;;4.47;;
9997;SDS011;5038;53.064;8.624;2023-06-01T07:31:58;8.10;;;5.07;;
9997;SDS011;5038;53.064;8.624;2023-06-01T07:34:27;7.30;;;4.57;;
9997;SDS011;5038;53.064;8.624;2023-06-01T07:36:56;6.90;;;4.00;;
9997;SDS011;5038;53.064;8.624;2023-06-01T07:39:42;8.77;;;5.20;;
9997;SDS011;5038;53.064;8.624;2023-06-01T07:42:10;8.47;;;5.23;;
9997;SDS011;5038;53.064;8.624;2023-06-01T07:44:39;7.33;;;5.13;;
9997;SDS011;5038;53.064;8.624;2023-06-01T07:47:07;10.00;;;6.13;;
9997;SDS011;5038;53.064;8.624;2023-06-01T07:49:35;9.27;;;6.03;;
9997;SDS011;5038;53.064;8.624;2023-06-01T07:52:05;10.20;;;5.90;;
9997;SDS011;5038;53.064;8.624;2023-06-01T07:54:34;9.47;;;6.60;;
9997;SDS011;5038;53.064;8.624;2023-06-01T07:57:03;10.70;;;6.50;;
9997;SDS011;5038;53.064;8.624;2023-06-01T07:59:32;10.60;;;7.17;;
9997;SDS011;5038;53.064;8.624;2023-06-01T08:02:00;11.50;;;7.10;;
9997;SDS011;5038;53.064;8.624;2023-06-01T08:04:29;12.87;;;7.00;;
9997;SDS011;5038;53.064;8.624;2023-06-01T08:07:00;12.13;;;7.60;;
9997;SDS011;5038;53.064;8.624;2023-06-01T08:09:31;10.30;;;6.70;;
9997;SDS011;5038;53.064;8.624;2023-06-01T08:12:00;9.87;;;6.37;;
9997;SDS011;5038;53.064;8.624;2023-06-01T08:14:28;12.30;;;7.70;;
9997;SDS011;5038;53.064;8.624;2023-06-01T08:16:58;10.03;;;7.27;;
9997;SDS011;5038;53.064;8.624;2023-06-01T08:19:27;11.07;;;6.77;;
9997;SDS011;5038;53.064;8.624;2023-06-01T08:21:56;9.57;;;6.83;;
9997;SDS011;5038;53.064;8.624;2023-06-01T08:24:25;11.27;;;7.80;;
9997;SDS011;5038;53.064;8.624;2023-06-01T08:26:55;10.47;;;7.33;;
9997;SDS011;5038;53.064;8.624;2023-06-01T08:29:23;11.13;;;6.60;;
9997;SDS011;5038;53.064;8.624;2023-06-01T08:32:08;12.00;;;6.10;;
9997;SDS011;5038;53.064;8.624;2023-06-01T08:34:36;9.10;;;6.07;;
9997;SDS011;5038;53.064;8.624;2023-06-01T08:37:05;11.70;;;7.17;;
9997;SDS011;5038;53.064;8.624;2023-06-01T08:39:33;10.77;;;6.73;;
9997;SDS011;5038;53.064;8.624;2023-06-01T08:42:06;11.50;;;6.10;;
9997;SDS011;5038;53.064;8.624;2023-06-01T08:44:38;11.80;;;6.50;;
9997;SDS011;5038;53.064;8.624;2023-06-01T08:47:07;9.33;;;6.70;;
9997;SDS011;5038;53.064;8.624;2023-06-01T08:49:37;8.97;;;6.40;;
9997;SDS011;5038;53.064;8.624;2023-06-01T08:52:11;9.23;;;6.63;;
9997;SDS011;5038;53.064;8.624;2023-06-01T08:54:40;10.90;;;7.33;;
9997;SDS011;5038;53.064;8.624;2023-06-01T08:57:10;7.93;;;5.80;;
9997;SDS011;5038;53.064;8.624;2023-06-01T08:59:39;11.40;;;6.20;;
9997;SDS011;5038;53.064;8.624;2023-06-01T09:02:07;11.90;;;5.67;;
9997;SDS011;5038;53.064;8.624;2023-06-01T09:04:36;13.47;;;6.53;;
9997;SDS011;5038;53.064;8.624;2023-06-01T09:07:10;9.20;;;5.40;;
9997;SDS011;5038;53.064;8.624;2023-06-01T09:09:39;11.20;;;5.80;;
9997;SDS011;5038;53.064;8.624;2023-06-01T09:15:08;10.03;;;5.77;;
9997;SDS011;5038;53.064;8.624;2023-06-01T09:17:38;8.80;;;5.93;;
9997;SDS011;5038;53.064;8.624;2023-06-01T09:20:11;9.50;;;5.70;;
9997;SDS011;5038;53.064;8.624;2023-06-01T09:22:40;10.53;;;5.37;;
9997;SDS011;5038;53.064;8.624;2023-06-01T09:25:09;8.70;;;4.63;;
9997;SDS011;5038;53.064;8.624;2023-06-01T09:27:44;8.30;;;4.50;;
9997;SDS011;5038;53.064;8.624;2023-06-01T09:30:15;8.40;;;4.20;;
9997;SDS011;5038;53.064;8.624;2023-06-01T09:32:44;8.30;;;4.37;;
9997;SDS011;5038;53.064;8.624;2023-06-01T09:35:18;9.27;;;4.57;;
9997;SDS011;5038;53.064;8.624;2023-06-01T09:38:05;7.87;;;4.30;;
9997;SDS011;5038;53.064;8.624;2023-06-01T09:40:33;8.00;;;3.80;;
9997;SDS011;5038;53.064;8.624;2023-06-01T09:43:03;12.43;;;4.70;;
9997;SDS011;5038;53.064;8.624;2023-06-01T09:45:57;6.97;;;4.07;;
9997;SDS011;5038;53.064;8.624;2023-06-01T09:48:32;6.03;;;3.83;;
9997;SDS011;5038;53.064;8.624;2023-06-01T09:51:01;7.13;;;4.43;;
9997;SDS011;5038;53.064;8.624;2023-06-01T09:53:39;7.23;;;4.93;;
9997;SDS011;5038;53.064;8.624;2023-06-01T09:56:07;9.03;;;4.10;;
9997;SDS011;5038;53.064;8.624;2023-06-01T09:58:37;8.50;;;5.33;;
9997;SDS011;5038;53.064;8.624;2023-06-01T10:01:07;7.77;;;4.40;;
9997;SDS011;5038;53.064;8.624;2023-06-01T10:03:36;6.80;;;4.70;;
9997;SDS011;5038;53.064;8.624;2023-06-01T10:06:10;9.00;;;5.50;;
9997;SDS011;5038;53.064;8.624;2023-06-01T10:08:39;10.50;;;5.10;;
9997;SDS011;5038;53.064;8.624;2023-06-01T10:11:09;9.80;;;5.70;;
9997;SDS011;5038;53.064;8.624;2023-06-01T10:13:38;9.87;;;4.73;;
9997;SDS011;5038;53.064;8.624;2023-06-01T10:16:08;9.70;;;5.03;;
9997;SDS011;5038;53.064;8.624;2023-06-01T10:18:37;9.33;;;4.50;;
9997;SDS011;5038;53.064;8.624;2023-06-01T10:21:07;10.37;;;5.23;;
9997;SDS011;5038;53.064;8.624;2023-06-01T10:23:35;11.23;;;6.27;;
9997;SDS011;5038;53.064;8.624;2023-06-01T10:26:05;11.60;;;5.90;;
9997;SDS011;5038;53.064;8.624;2023-06-01T10:28:39;10.07;;;5.37;;
9997;SDS011;5038;53.064;8.624;2023-06-01T10:34:00;11.13;;;5.20;;
9997;SDS011;5038;53.064;8.624;2023-06-01T10:39:34;10.30;;;5.27;;
9997;SDS011;5038;53.064;8.624;2023-06-01T10:45:04;10.63;;;5.23;;
9997;SDS011;5038;53.064;8.624;2023-06-01T10:47:46;9.47;;;5.37;;
9997;SDS011;5038;53.064;8.624;2023-06-01T10:50:19;9.13;;;4.60;;
9997;SDS011;5038;53.064;8.624;2023-06-01T10:52:47;10.47;;;5.37;;
9997;SDS011;5038;53.064;8.624;2023-06-01T10:55:21;10.87;;;5.20;;
9997;SDS011;5038;53.064;8.624;2023-06-01T11:00:50;12.00;;;5.33;;
9997;SDS011;5038;53.064;8.624;2023-06-01T11:06:24;9.77;;;5.20;;
9997;SDS011;5038;53.064;8.624;2023-06-01T11:08:54;10.40;;;5.13;;
9997;SDS011;5038;53.064;8.624;2023-06-01T11:14:27;12.47;;;5.70;;
9997;SDS011;5038;53.064;8.624;2023-06-01T11:20:00;10.30;;;4.80;;
9997;SDS011;5038;53.064;8.624;2023-06-01T11:22:36;10.27;;;5.67;;
9997;SDS011;5038;53.064;8.624;2023-06-01T11:25:05;12.80;;;6.50;;
9997;SDS011;5038;53.064;8.624;2023-06-01T11:27:35;13.50;;;7.60;;
9997;SDS011;5038;53.064;8.624;2023-06-01T11:30:04;13.40;;;5.37;;
9997;SDS011;5038;53.064;8.624;2023-06-01T11:32:35;14.13;;;6.20;;
9997;SDS011;5038;53.064;8.624;2023-06-01T11:35:17;11.30;;;5.40;;
9997;SDS011;5038;53.064;8.624;2023-06-01T11:37:51;11.73;;;5.83;;
9997;SDS011;5038;53.064;8.624;2023-06-01T11:40:24;12.13;;;5.87;;
9997;SDS011;5038;53.064;8.624;2023-06-01T11:42:58;9.83;;;5.33;;
9997;SDS011;5038;53.064;8.624;2023-06-01T11:45:26;9.73;;;5.20;;
9997;SDS011;5038;53.064;8.624;2023-06-01T11:47:56;12.53;;;5.40;;
9997;SDS011;5038;53.064;8.624;2023-06-01T11:50:24;10.43;;;5.83;;
9997;SDS011;5038;53.064;8.624;2023-06-01T11:52:55;12.43;;;6.73;;
9997;SDS011;5038;53.064;8.624;2023-06-01T11:55:24;9.40;;;5.50;;
9997;SDS011;5038;53.064;8.624;2023-06-01T11:57:52;10.23;;;6.60;;
9997;SDS011;5038;53.064;8.624;2023-06-01T12:00:21;10.87;;;5.43;;
9997;SDS011;5038;53.064;8.624;2023-06-01T12:02:49;11.17;;;6.23;;
9997;SDS011;5038;53.064;8.624;2023-06-01T12:05:39;8.73;;;5.33;;
9997;SDS011;5038;53.064;8.624;2023-06-01T12:08:14;8.83;;;5.70;;
9997;SDS011;5038;53.064;8.624;2023-06-01T12:10:45;9.87;;;6.57;;
9997;SDS011;5038;53.064;8.624;2023-06-01T12:13:14;11.37;;;6.63;;
9997;SDS011;5038;53.064;8.624;2023-06-01T12:15:43;10.77;;;6.80;;
9997;SDS011;5038;53.064;8.624;2023-06-01T12:18:13;12.67;;;7.10;;
9997;SDS011;5038;53.064;8.624;2023-06-01T12:20:42;10.63;;;6.80;;
9997;SDS011;5038;53.064;8.624;2023-06-01T12:23:12;12.50;;;6.47;;
9997;SDS011;5038;53.064;8.624;2023-06-01T12:25:49;11.17;;;7.07;;
9997;SDS011;5038;53.064;8.624;2023-06-01T12:28:18;12.53;;;8.27;;
9997;SDS011;5038;53.064;8.624;2023-06-01T12:30:47;12.23;;;7.20;;
9997;SDS011;5038;53.064;8.624;2023-06-01T12:33:33;10.57;;;6.97;;
9997;SDS011;5038;53.064;8.624;2023-06-01T12:36:02;12.23;;;6.40;;
9997;SDS011;5038;53.064;8.624;2023-06-01T12:38:36;14.07;;;7.70;;
9997;SDS011;5038;53.064;8.624;2023-06-01T12:41:05;11.13;;;6.10;;
9997;SDS011;5038;53.064;8.624;2023-06-01T12:43:35;13.13;;;6.03;;
9997;SDS011;5038;53.064;8.624;2023-06-01T12:46:04;13.47;;;6.73;;
9997;SDS011;5038;53.064;8.624;2023-06-01T12:48:35;13.40;;;6.90;;
9997;SDS011;5038;53.064;8.624;2023-06-01T12:51:04;14.70;;;6.30;;
9997;SDS011;5038;53.064;8.624;2023-06-01T12:53:34;10.60;;;6.17;;
9997;SDS011;5038;53.064;8.624;2023-06-01T12:56:02;10.00;;;6.50;;
9997;SDS011;5038;53.064;8.624;2023-06-01T12:58:31;11.80;;;6.90;;
9997;SDS011;5038;53.064;8.624;2023-06-01T13:00:59;15.77;;;7.03;;
9997;SDS011;5038;53.064;8.624;2023-06-01T13:03:28;12.30;;;7.13;;
9997;SDS011;5038;53.064;8.624;2023-06-01T13:05:58;9.13;;;6.60;;
9997;SDS011;5038;53.064;8.624;2023-06-01T13:08:26;14.07;;;7.10;;
9997;SDS011;5038;53.064;8.624;2023-06-01T13:10:55;14.07;;;7.60;;
9997;SDS011;5038;53.064;8.624;2023-06-01T13:13:23;10.17;;;5.90;;
9997;SDS011;5038;53.064;8.624;2023-06-01T13:15:51;10.53;;;6.60;;
9997;SDS011;5038;53.064;8.624;2023-06-01T13:18:19;12.00;;;6.53;;
9997;SDS011;5038;53.064;8.624;2023-06-01T13:20:47;9.77;;;6.27;;
9997;SDS011;5038;53.064;8.624;2023-06-01T13:23:18;10.93;;;6.47;;
9997;SDS011;5038;53.064;8.624;2023-06-01T13:25:47;9.33;;;6.07;;
9997;SDS011;5038;53.064;8.624;2023-06-01T13:28:15;10.70;;;6.33;;
9997;SDS011;5038;53.064;8.624;2023-06-01T13:30:43;10.57;;;6.70;;
9997;SDS011;5038;53.064;8.624;2023-06-01T13:33:11;11.50;;;6.10;;
9997;SDS011;5038;53.064;8.624;2023-06-01T13:35:40;10.33;;;5.87;;
9997;SDS011;5038;53.064;8.624;2023-06-01T13:38:09;7.97;;;5.47;;
9997;SDS011;5038;53.064;8.624;2023-06-01T13:40:38;10.33;;;5.23;;
9997;SDS011;5038;53.064;8.624;2023-06-01T13:43:06;10.37;;;5.80;;
9997;SDS011;5038;53.064;8.624;2023-06-01T13:45:35;11.87;;;5.20;;
9997;SDS011;5038;53.064;8.624;2023-06-01T13:48:03;8.90;;;5.00;;
9997;SDS011;5038;53.064;8.624;2023-06-01T13:50:31;10.87;;;6.00;;
9997;SDS011;5038;53.064;8.624;2023-06-01T13:52:59;7.97;;;5.77;;
9997;SDS011;5038;53.064;8.624;2023-06-01T13:55:31;11.80;;;5.50;;
9997;SDS011;5038;53.064;8.624;2023-06-01T13:58:01;10.87;;;4.97;;
9997;SDS011;5038;53.064;8.624;2023-06-01T14:00:29;8.67;;;5.20;;
9997;SDS011;5038;53.064;8.624;2023-06-01T14:02:58;11.33;;;5.33;;
9997;SDS011;5038;53.064;8.624;2023-06-01T14:05:26;11.80;;;6.00;;
9997;SDS011;5038;53.064;8.624;2023-06-01T14:08:14;7.47;;;4.60;;
9997;SDS011;5038;53.064;8.624;2023-06-01T14:10:42;11.43;;;5.90;;
9997;SDS011;5038;53.064;8.624;2023-06-01T14:13:12;10.10;;;5.60;;
9997;SDS011;5038;53.064;8.624;2023-06-01T14:15:40;8.80;;;5.33;;
9997;SDS011;5038;53.064;8.624;2023-06-01T14:18:09;11.97;;;5.10;;
9997;SDS011;5038;53.064;8.624;2023-06-01T14:20:37;11.70;;;4.73;;
9997;SDS011;5038;53.064;8.624;2023-06-01T14:23:05;8.63;;;4.93;;
9997;SDS011;5038;53.064;8.624;2023-06-01T14:25:35;8.67;;;4.80;;
9997;SDS011;5038;53.064;8.624;2023-06-01T14:28:04;7.60;;;4.53;;
9997;SDS011;5038;53.064;8.624;2023-06-01T14:30:34;9.13;;;5.17;;
9997;SDS011;5038;53.064;8.624;2023-06-01T14:33:02;10.47;;;4.87;;
9997;SDS011;5038;53.064;8.624;2023-06-01T14:35:30;10.17;;;5.50;;
9997;SDS011;5038;53.064;8.624;2023-06-01T14:37:59;9.13;;;4.53;;
9997;SDS011;5038;53.064;8.624;2023-06-01T14:40:27;8.70;;;4.80;;
9997;SDS011;5038;53.064;8.624;2023-06-01T14:42:56;12.90;;;5.50;;
9997;SDS011;5038;53.064;8.624;2023-06-01T14:45:24;8.20;;;4.70;;
9997;SDS011;5038;53.064;8.624;2023-06-01T14:47:54;8.60;;;4.70;;
9997;SDS011;5038;53.064;8.624;2023-06-01T14:50:22;10.70;;;5.00;;
9997;SDS011;5038;53.064;8.624;2023-06-01T14:52:51;9.67;;;4.90;;
9997;SDS011;5038;53.064;8.624;2023-06-01T14:55:24;9.30;;;5.00;;
9997;SDS011;5038;53.064;8.624;2023-06-01T14:57:52;9.70;;;4.53;;
9997;SDS011;5038;53.064;8.624;2023-06-01T15:00:21;10.10;;;4.20;;
9997;SDS011;5038;53.064;8.624;2023-06-01T15:02:49;8.63;;;4.83;;
9997;SDS011;5038;53.064;8.624;2023-06-01T15:05:18;6.23;;;3.53;;
9997;SDS011;5038;53.064;8.624;2023-06-01T15:07:47;6.83;;;4.03;;
9997;SDS011;5038;53.064;8.624;2023-06-01T15:10:15;11.27;;;4.83;;
9997;SDS011;5038;53.064;8.624;2023-06-01T15:12:43;7.97;;;4.20;;
9997;SDS011;5038;53.064;8.624;2023-06-01T15:15:11;10.00;;;4.33;;
9997;SDS011;5038;53.064;8.624;2023-06-01T15:17:40;11.57;;;4.13;;
9997;SDS011;5038;53.064;8.624;2023-06-01T15:20:08;7.67;;;3.60;;
9997;SDS011;5038;53.064;8.624;2023-06-01T15:22:38;8.33;;;3.90;;
9997;SDS011;5038;53.064;8.624;2023-06-01T15:25:07;7.57;;;3.33;;
9997;SDS011;5038;53.064;8.624;2023-06-01T15:27:36;7.53;;;4.00;;
9997;SDS011;5038;53.064;8.624;2023-06-01T15:30:06;7.00;;;3.70;;
9997;SDS011;5038;53.064;8.624;2023-06-01T15:32:35;7.37;;;3.40;;
9997;SDS011;5038;53.064;8.624;2023-06-01T15:35:04;9.00;;;4.13;;
9997;SDS011;5038;53.064;8.624;2023-06-01T15:37:35;4.90;;;2.90;;
9997;SDS011;5038;53.064;8.624;2023-06-01T15:40:11;8.17;;;3.97;;
9997;SDS011;5038;53.064;8.624;2023-06-01T15:42:41;9.40;;;4.00;;
9997;SDS011;5038;53.064;8.624;2023-06-01T15:45:09;7.27;;;3.63;;
9997;SDS011;5038;53.064;8.624;2023-06-01T15:47:38;8.87;;;3.67;;
9997;SDS011;5038;53.064;8.624;2023-06-01T15:50:06;6.63;;;3.50;;